sensor_id;sensor_type;location;lat;lon;timestamp;P1;durP1;ratioP1;P2;durP2;ratioP2
6661;SDS011;3367;48.714;8.994;2022-12-28T00:00:05;12.70;;;8.30;;
6661;SDS011;3367;48.714;8.994;2022-12-28T00:02:33;12.10;;;8.13;;
6661;SDS011;3367;48.714;8.994;2022-12-28T00:04:59;9.63;;;7.30;;
6661;SDS011;3367;48.714;8.994;2022-12-28T00:07:26;15.20;;;8.37;;
6661;SDS011;3367;48.714;8.994;2022-12-28T00:09:53;14.00;;;7.70;;
6661;SDS011;3367;48.714;8.994;2022-12-28T00:12:20;8.80;;;6.73;;
6661;SDS011;3367;48.714;8.994;2022-12-28T00:14:48;11.37;;;7.43;;
6661;SDS011;3367;48.714;8.994;2022-12-28T00:17:14;13.53;;;7.17;;
6661;SDS011;3367;48.714;8.994;2022-12-28T00:19:41;11.70;;;7.33;;
6661;SDS011;3367;48.714;8.994;2022-12-28T00:22:08;15.57;;;8.43;;
6661;SDS011;3367;48.714;8.994;2022-12-28T00:24:35;16.63;;;9.10;;
6661;SDS011;3367;48.714;8.994;2022-12-28T00:27:01;13.63;;;8.43;;
6661;SDS011;3367;48.714;8.994;2022-12-28T00:29:28;13.40;;;8.10;;
6661;SDS011;3367;48.714;8.994;2022-12-28T00:31:56;14.03;;;8.40;;
6661;SDS011;3367;48.714;8.994;2022-12-28T00:34:23;13.20;;;8.90;;
6661;SDS011;3367;48.714;8.994;2022-12-28T00:36:50;15.10;;;9.90;;
6661;SDS011;3367;48.714;8.994;2022-12-28T00:39:17;14.47;;;9.00;;
6661;SDS011;3367;48.714;8.994;2022-12-28T00:41:44;14.37;;;9.30;;
6661;SDS011;3367;48.714;8.994;2022-12-28T00:44:11;13.73;;;9.87;;
6661;SDS011;3367;48.714;8.994;2022-12-28T00:46:38;16.43;;;9.60;;
6661;SDS011;3367;48.714;8.994;2022-12-28T00:49:06;14.60;;;9.57;;
6661;SDS011;3367;48.714;8.994;2022-12-28T00:51:33;9.73;;;7.10;;
6661;SDS011;3367;48.714;8.994;2022-12-28T00:54:00;12.93;;;8.47;;
6661;SDS011;3367;48.714;8.994;2022-12-28T00:56:26;11.80;;;7.70;;
6661;SDS011;3367;48.714;8.994;2022-12-28T00:58:54;9.90;;;7.00;;
6661;SDS011;3367;48.714;8.994;2022-12-28T01:01:22;11.70;;;6.80;;
6661;SDS011;3367;48.714;8.994;2022-12-28T01:03:49;12.50;;;6.90;;
6661;SDS011;3367;48.714;8.994;2022-12-28T01:06:18;11.87;;;7.73;;
6661;SDS011;3367;48.714;8.994;2022-12-28T01:08:45;15.97;;;8.40;;
6661;SDS011;3367;48.714;8.994;2022-12-28T01:11:13;10.73;;;7.53;;
6661;SDS011;3367;48.714;8.994;2022-12-28T01:13:42;15.63;;;7.90;;
6661;SDS011;3367;48.714;8.994;2022-12-28T01:16:10;13.03;;;7.10;;
6661;SDS011;3367;48.714;8.994;2022-12-28T01:18:37;9.27;;;6.30;;
6661;SDS011;3367;48.714;8.994;2022-12-28T01:21:08;10.17;;;6.50;;
6661;SDS011;3367;48.714;8.994;2022-12-28T01:23:37;6.63;;;5.90;;
6661;SDS011;3367;48.714;8.994;2022-12-28T01:26:04;6.93;;;5.33;;
6661;SDS011;3367;48.714;8.994;2022-12-28T01:28:31;15.90;;;5.80;;
6661;SDS011;3367;48.714;8.994;2022-12-28T01:31:01;7.50;;;5.10;;
6661;SDS011;3367;48.714;8.994;2022-12-28T01:33:29;7.73;;;5.40;;
6661;SDS011;3367;48.714;8.994;2022-12-28T01:35:56;6.40;;;4.67;;
6661;SDS011;3367;48.714;8.994;2022-12-28T01:38:23;5.27;;;4.40;;
6661;SDS011;3367;48.714;8.994;2022-12-28T01:40:51;7.37;;;4.63;;
6661;SDS011;3367;48.714;8.994;2022-12-28T01:43:18;11.27;;;5.43;;
6661;SDS011;3367;48.714;8.994;2022-12-28T01:45:46;9.77;;;4.50;;
6661;SDS011;3367;48.714;8.994;2022-12-28T01:48:18;4.67;;;3.97;;
6661;SDS011;3367;48.714;8.994;2022-12-28T01:50:49;5.23;;;4.33;;
6661;SDS011;3367;48.714;8.994;2022-12-28T01:53:18;5.13;;;3.57;;
6661;SDS011;3367;48.714;8.994;2022-12-28T01:55:46;6.20;;;4.03;;
6661;SDS011;3367;48.714;8.994;2022-12-28T01:58:16;3.83;;;3.50;;
6661;SDS011;3367;48.714;8.994;2022-12-28T02:00:45;7.77;;;3.93;;
6661;SDS011;3367;48.714;8.994;2022-12-28T02:03:13;5.83;;;3.70;;
6661;SDS011;3367;48.714;8.994;2022-12-28T02:05:44;4.33;;;3.00;;
6661;SDS011;3367;48.714;8.994;2022-12-28T02:08:15;5.53;;;3.37;;
6661;SDS011;3367;48.714;8.994;2022-12-28T02:10:46;3.27;;;2.73;;
6661;SDS011;3367;48.714;8.994;2022-12-28T02:13:15;5.03;;;3.20;;
6661;SDS011;3367;48.714;8.994;2022-12-28T02:15:43;5.23;;;3.80;;
6661;SDS011;3367;48.714;8.994;2022-12-28T02:18:10;3.10;;;2.90;;
6661;SDS011;3367;48.714;8.994;2022-12-28T02:20:39;3.90;;;3.60;;
6661;SDS011;3367;48.714;8.994;2022-12-28T02:23:22;4.10;;;3.67;;
6661;SDS011;3367;48.714;8.994;2022-12-28T02:26:06;4.47;;;4.07;;
6661;SDS011;3367;48.714;8.994;2022-12-28T02:31:56;5.63;;;3.40;;
6661;SDS011;3367;48.714;8.994;2022-12-28T02:34:31;4.17;;;3.67;;
6661;SDS011;3367;48.714;8.994;2022-12-28T02:37:06;3.30;;;3.00;;
6661;SDS011;3367;48.714;8.994;2022-12-28T02:39:37;3.50;;;3.20;;
6661;SDS011;3367;48.714;8.994;2022-12-28T02:42:08;5.40;;;2.80;;
6661;SDS011;3367;48.714;8.994;2022-12-28T02:44:37;3.47;;;3.10;;
6661;SDS011;3367;48.714;8.994;2022-12-28T02:47:22;7.17;;;4.80;;
6661;SDS011;3367;48.714;8.994;2022-12-28T02:50:07;2.50;;;2.30;;
6661;SDS011;3367;48.714;8.994;2022-12-28T02:52:42;5.20;;;3.37;;
6661;SDS011;3367;48.714;8.994;2022-12-28T02:55:24;5.53;;;3.10;;
6661;SDS011;3367;48.714;8.994;2022-12-28T02:58:28;5.77;;;3.00;;
6661;SDS011;3367;48.714;8.994;2022-12-28T03:01:21;3.30;;;2.60;;
6661;SDS011;3367;48.714;8.994;2022-12-28T03:04:01;5.10;;;2.83;;
6661;SDS011;3367;48.714;8.994;2022-12-28T03:06:37;6.47;;;2.50;;
6661;SDS011;3367;48.714;8.994;2022-12-28T03:09:27;4.00;;;2.67;;
6661;SDS011;3367;48.714;8.994;2022-12-28T03:12:02;5.00;;;2.70;;
6661;SDS011;3367;48.714;8.994;2022-12-28T03:14:37;3.70;;;2.70;;
6661;SDS011;3367;48.714;8.994;2022-12-28T03:17:09;3.03;;;2.40;;
6661;SDS011;3367;48.714;8.994;2022-12-28T03:19:55;2.50;;;2.30;;
6661;SDS011;3367;48.714;8.994;2022-12-28T03:22:43;4.67;;;3.47;;
6661;SDS011;3367;48.714;8.994;2022-12-28T03:25:29;5.37;;;2.60;;
6661;SDS011;3367;48.714;8.994;2022-12-28T03:28:17;3.20;;;2.60;;
6661;SDS011;3367;48.714;8.994;2022-12-28T03:31:06;2.20;;;2.00;;
6661;SDS011;3367;48.714;8.994;2022-12-28T03:33:39;4.13;;;2.17;;
6661;SDS011;3367;48.714;8.994;2022-12-28T03:36:10;4.20;;;2.57;;
6661;SDS011;3367;48.714;8.994;2022-12-28T03:38:44;4.17;;;2.97;;
6661;SDS011;3367;48.714;8.994;2022-12-28T03:41:22;3.30;;;2.13;;
6661;SDS011;3367;48.714;8.994;2022-12-28T03:43:55;2.20;;;2.00;;
6661;SDS011;3367;48.714;8.994;2022-12-28T03:46:29;2.90;;;1.87;;
6661;SDS011;3367;48.714;8.994;2022-12-28T03:49:00;4.70;;;1.97;;
6661;SDS011;3367;48.714;8.994;2022-12-28T03:51:28;4.57;;;1.87;;
6661;SDS011;3367;48.714;8.994;2022-12-28T03:53:57;2.33;;;2.13;;
6661;SDS011;3367;48.714;8.994;2022-12-28T03:56:24;2.27;;;2.07;;
6661;SDS011;3367;48.714;8.994;2022-12-28T03:58:53;2.10;;;1.93;;
6661;SDS011;3367;48.714;8.994;2022-12-28T04:01:20;2.10;;;1.90;;
6661;SDS011;3367;48.714;8.994;2022-12-28T04:03:47;3.80;;;2.10;;
6661;SDS011;3367;48.714;8.994;2022-12-28T04:06:16;3.40;;;1.93;;
6661;SDS011;3367;48.714;8.994;2022-12-28T04:08:45;2.30;;;2.07;;
6661;SDS011;3367;48.714;8.994;2022-12-28T04:11:12;2.70;;;1.90;;
6661;SDS011;3367;48.714;8.994;2022-12-28T04:13:40;1.80;;;1.50;;
6661;SDS011;3367;48.714;8.994;2022-12-28T04:16:07;1.63;;;1.37;;
6661;SDS011;3367;48.714;8.994;2022-12-28T04:18:36;1.67;;;1.57;;
6661;SDS011;3367;48.714;8.994;2022-12-28T04:21:03;1.67;;;1.57;;
6661;SDS011;3367;48.714;8.994;2022-12-28T04:23:31;2.63;;;1.80;;
6661;SDS011;3367;48.714;8.994;2022-12-28T04:25:59;4.00;;;1.90;;
6661;SDS011;3367;48.714;8.994;2022-12-28T04:28:27;5.50;;;1.90;;
6661;SDS011;3367;48.714;8.994;2022-12-28T04:30:55;2.00;;;1.43;;
6661;SDS011;3367;48.714;8.994;2022-12-28T04:33:23;4.23;;;1.87;;
6661;SDS011;3367;48.714;8.994;2022-12-28T04:35:50;3.60;;;2.10;;
6661;SDS011;3367;48.714;8.994;2022-12-28T04:38:17;3.57;;;1.83;;
6661;SDS011;3367;48.714;8.994;2022-12-28T04:40:46;2.97;;;1.60;;
6661;SDS011;3367;48.714;8.994;2022-12-28T04:43:13;2.80;;;1.33;;
6661;SDS011;3367;48.714;8.994;2022-12-28T04:45:39;2.23;;;1.30;;
6661;SDS011;3367;48.714;8.994;2022-12-28T04:48:06;1.77;;;1.17;;
6661;SDS011;3367;48.714;8.994;2022-12-28T04:50:34;2.00;;;1.30;;
6661;SDS011;3367;48.714;8.994;2022-12-28T04:53:01;2.60;;;1.57;;
6661;SDS011;3367;48.714;8.994;2022-12-28T04:55:28;3.00;;;1.40;;
6661;SDS011;3367;48.714;8.994;2022-12-28T04:57:56;2.40;;;1.40;;
6661;SDS011;3367;48.714;8.994;2022-12-28T05:00:23;2.60;;;1.43;;
6661;SDS011;3367;48.714;8.994;2022-12-28T05:02:49;2.00;;;1.27;;
6661;SDS011;3367;48.714;8.994;2022-12-28T05:05:16;1.57;;;1.00;;
6661;SDS011;3367;48.714;8.994;2022-12-28T05:07:43;4.00;;;1.30;;
6661;SDS011;3367;48.714;8.994;2022-12-28T05:10:09;1.27;;;1.10;;
6661;SDS011;3367;48.714;8.994;2022-12-28T05:12:36;2.00;;;1.00;;
6661;SDS011;3367;48.714;8.994;2022-12-28T05:15:05;5.50;;;1.17;;
6661;SDS011;3367;48.714;8.994;2022-12-28T05:17:32;1.30;;;1.20;;
6661;SDS011;3367;48.714;8.994;2022-12-28T05:19:59;2.43;;;1.20;;
6661;SDS011;3367;48.714;8.994;2022-12-28T05:22:27;1.00;;;1.00;;
6661;SDS011;3367;48.714;8.994;2022-12-28T05:24:54;2.00;;;1.37;;
6661;SDS011;3367;48.714;8.994;2022-12-28T05:27:21;3.17;;;1.73;;
6661;SDS011;3367;48.714;8.994;2022-12-28T05:29:48;3.27;;;1.30;;
6661;SDS011;3367;48.714;8.994;2022-12-28T05:32:16;1.20;;;1.10;;
6661;SDS011;3367;48.714;8.994;2022-12-28T05:34:43;4.70;;;1.70;;
6661;SDS011;3367;48.714;8.994;2022-12-28T05:37:09;2.80;;;1.67;;
6661;SDS011;3367;48.714;8.994;2022-12-28T05:39:36;3.10;;;1.90;;
6661;SDS011;3367;48.714;8.994;2022-12-28T05:42:03;4.00;;;2.23;;
6661;SDS011;3367;48.714;8.994;2022-12-28T05:44:30;3.20;;;1.40;;
6661;SDS011;3367;48.714;8.994;2022-12-28T05:46:56;3.40;;;1.57;;
6661;SDS011;3367;48.714;8.994;2022-12-28T05:49:24;2.50;;;1.80;;
6661;SDS011;3367;48.714;8.994;2022-12-28T05:51:51;1.57;;;1.47;;
6661;SDS011;3367;48.714;8.994;2022-12-28T05:54:18;2.23;;;1.60;;
6661;SDS011;3367;48.714;8.994;2022-12-28T05:56:45;2.57;;;1.30;;
6661;SDS011;3367;48.714;8.994;2022-12-28T05:59:15;4.47;;;1.97;;
6661;SDS011;3367;48.714;8.994;2022-12-28T06:01:42;2.13;;;1.40;;
6661;SDS011;3367;48.714;8.994;2022-12-28T06:04:12;1.20;;;1.10;;
6661;SDS011;3367;48.714;8.994;2022-12-28T06:06:43;3.93;;;1.13;;
6661;SDS011;3367;48.714;8.994;2022-12-28T06:09:10;2.27;;;1.40;;
6661;SDS011;3367;48.714;8.994;2022-12-28T06:11:37;2.07;;;1.23;;
6661;SDS011;3367;48.714;8.994;2022-12-28T06:14:04;3.63;;;1.33;;
6661;SDS011;3367;48.714;8.994;2022-12-28T06:16:32;1.33;;;1.23;;
6661;SDS011;3367;48.714;8.994;2022-12-28T06:19:03;1.20;;;0.97;;
6661;SDS011;3367;48.714;8.994;2022-12-28T06:21:31;2.20;;;1.23;;
6661;SDS011;3367;48.714;8.994;2022-12-28T06:24:00;1.00;;;0.90;;
6661;SDS011;3367;48.714;8.994;2022-12-28T06:26:28;1.37;;;1.07;;
6661;SDS011;3367;48.714;8.994;2022-12-28T06:28:56;5.47;;;1.10;;
6661;SDS011;3367;48.714;8.994;2022-12-28T06:31:24;2.10;;;1.10;;
6661;SDS011;3367;48.714;8.994;2022-12-28T06:33:53;1.80;;;1.50;;
6661;SDS011;3367;48.714;8.994;2022-12-28T06:36:21;6.53;;;2.53;;
6661;SDS011;3367;48.714;8.994;2022-12-28T06:38:50;2.30;;;1.80;;
6661;SDS011;3367;48.714;8.994;2022-12-28T06:41:23;2.23;;;2.03;;
6661;SDS011;3367;48.714;8.994;2022-12-28T06:43:51;9.33;;;5.87;;
6661;SDS011;3367;48.714;8.994;2022-12-28T06:46:19;9.10;;;5.00;;
6661;SDS011;3367;48.714;8.994;2022-12-28T06:48:47;2.57;;;2.37;;
6661;SDS011;3367;48.714;8.994;2022-12-28T06:51:15;2.40;;;1.87;;
6661;SDS011;3367;48.714;8.994;2022-12-28T06:53:43;4.07;;;1.50;;
6661;SDS011;3367;48.714;8.994;2022-12-28T06:56:11;1.43;;;1.33;;
6661;SDS011;3367;48.714;8.994;2022-12-28T06:58:40;5.30;;;2.00;;
6661;SDS011;3367;48.714;8.994;2022-12-28T07:01:08;3.93;;;1.90;;
6661;SDS011;3367;48.714;8.994;2022-12-28T07:03:38;2.30;;;1.80;;
6661;SDS011;3367;48.714;8.994;2022-12-28T07:06:05;3.33;;;2.33;;
6661;SDS011;3367;48.714;8.994;2022-12-28T07:08:32;2.30;;;2.10;;
6661;SDS011;3367;48.714;8.994;2022-12-28T07:11:02;3.23;;;2.33;;
6661;SDS011;3367;48.714;8.994;2022-12-28T07:13:30;3.50;;;2.03;;
6661;SDS011;3367;48.714;8.994;2022-12-28T07:16:01;1.77;;;1.63;;
6661;SDS011;3367;48.714;8.994;2022-12-28T07:18:28;6.53;;;2.70;;
6661;SDS011;3367;48.714;8.994;2022-12-28T07:20:59;3.77;;;2.33;;
6661;SDS011;3367;48.714;8.994;2022-12-28T07:23:27;4.13;;;3.20;;
6661;SDS011;3367;48.714;8.994;2022-12-28T07:25:55;6.13;;;2.70;;
6661;SDS011;3367;48.714;8.994;2022-12-28T07:28:22;2.90;;;2.60;;
6661;SDS011;3367;48.714;8.994;2022-12-28T07:30:49;4.27;;;3.07;;
6661;SDS011;3367;48.714;8.994;2022-12-28T07:33:18;3.60;;;2.60;;
6661;SDS011;3367;48.714;8.994;2022-12-28T07:35:44;3.70;;;2.40;;
6661;SDS011;3367;48.714;8.994;2022-12-28T07:38:11;6.33;;;3.10;;
6661;SDS011;3367;48.714;8.994;2022-12-28T07:40:38;6.93;;;2.87;;
6661;SDS011;3367;48.714;8.994;2022-12-28T07:43:05;2.27;;;2.00;;
6661;SDS011;3367;48.714;8.994;2022-12-28T07:45:32;4.23;;;3.30;;
6661;SDS011;3367;48.714;8.994;2022-12-28T07:47:59;7.07;;;4.90;;
6661;SDS011;3367;48.714;8.994;2022-12-28T07:50:27;10.00;;;4.67;;
6661;SDS011;3367;48.714;8.994;2022-12-28T07:52:53;4.60;;;4.00;;
6661;SDS011;3367;48.714;8.994;2022-12-28T07:55:20;4.97;;;3.80;;
6661;SDS011;3367;48.714;8.994;2022-12-28T07:57:49;3.10;;;2.80;;
6661;SDS011;3367;48.714;8.994;2022-12-28T08:00:18;4.40;;;2.50;;
6661;SDS011;3367;48.714;8.994;2022-12-28T08:02:55;4.83;;;3.00;;
6661;SDS011;3367;48.714;8.994;2022-12-28T08:05:22;4.73;;;3.20;;
6661;SDS011;3367;48.714;8.994;2022-12-28T08:07:50;5.93;;;2.70;;
6661;SDS011;3367;48.714;8.994;2022-12-28T08:10:18;3.03;;;2.40;;
6661;SDS011;3367;48.714;8.994;2022-12-28T08:12:44;2.80;;;1.90;;
6661;SDS011;3367;48.714;8.994;2022-12-28T08:15:11;3.83;;;2.43;;
6661;SDS011;3367;48.714;8.994;2022-12-28T08:17:38;1.77;;;1.67;;
6661;SDS011;3367;48.714;8.994;2022-12-28T08:20:05;2.50;;;2.13;;
6661;SDS011;3367;48.714;8.994;2022-12-28T08:22:33;2.10;;;1.87;;
6661;SDS011;3367;48.714;8.994;2022-12-28T08:25:01;5.87;;;1.80;;
6661;SDS011;3367;48.714;8.994;2022-12-28T08:27:27;2.80;;;2.17;;
6661;SDS011;3367;48.714;8.994;2022-12-28T08:29:55;2.03;;;1.93;;
6661;SDS011;3367;48.714;8.994;2022-12-28T08:32:29;2.97;;;2.40;;
6661;SDS011;3367;48.714;8.994;2022-12-28T08:34:55;2.43;;;2.23;;
6661;SDS011;3367;48.714;8.994;2022-12-28T08:37:22;5.10;;;2.47;;
6661;SDS011;3367;48.714;8.994;2022-12-28T08:39:49;3.20;;;1.67;;
6661;SDS011;3367;48.714;8.994;2022-12-28T08:42:17;1.70;;;1.60;;
6661;SDS011;3367;48.714;8.994;2022-12-28T08:44:44;3.47;;;1.50;;
6661;SDS011;3367;48.714;8.994;2022-12-28T08:47:11;1.60;;;1.50;;
6661;SDS011;3367;48.714;8.994;2022-12-28T08:49:37;2.10;;;1.53;;
6661;SDS011;3367;48.714;8.994;2022-12-28T08:52:04;2.50;;;1.83;;
6661;SDS011;3367;48.714;8.994;2022-12-28T08:54:31;2.10;;;1.77;;
6661;SDS011;3367;48.714;8.994;2022-12-28T08:56:58;1.80;;;1.70;;
6661;SDS011;3367;48.714;8.994;2022-12-28T08:59:26;1.80;;;1.30;;
6661;SDS011;3367;48.714;8.994;2022-12-28T09:01:53;1.63;;;1.53;;
6661;SDS011;3367;48.714;8.994;2022-12-28T09:04:20;1.60;;;1.50;;
6661;SDS011;3367;48.714;8.994;2022-12-28T09:06:48;1.37;;;1.27;;
6661;SDS011;3367;48.714;8.994;2022-12-28T09:09:15;2.20;;;1.20;;
6661;SDS011;3367;48.714;8.994;2022-12-28T09:11:43;1.53;;;1.43;;
6661;SDS011;3367;48.714;8.994;2022-12-28T09:14:11;1.40;;;1.30;;
6661;SDS011;3367;48.714;8.994;2022-12-28T09:16:40;3.20;;;1.30;;
6661;SDS011;3367;48.714;8.994;2022-12-28T09:19:08;5.60;;;1.57;;
6661;SDS011;3367;48.714;8.994;2022-12-28T09:21:38;1.97;;;1.20;;
6661;SDS011;3367;48.714;8.994;2022-12-28T09:24:05;2.40;;;1.17;;
6661;SDS011;3367;48.714;8.994;2022-12-28T09:26:33;2.30;;;1.10;;
6661;SDS011;3367;48.714;8.994;2022-12-28T09:29:02;1.30;;;1.20;;
6661;SDS011;3367;48.714;8.994;2022-12-28T09:31:30;2.37;;;1.23;;
6661;SDS011;3367;48.714;8.994;2022-12-28T09:34:01;2.70;;;1.40;;
6661;SDS011;3367;48.714;8.994;2022-12-28T09:36:28;1.93;;;0.93;;
6661;SDS011;3367;48.714;8.994;2022-12-28T09:38:57;1.57;;;1.20;;
6661;SDS011;3367;48.714;8.994;2022-12-28T09:41:26;2.00;;;1.07;;
6661;SDS011;3367;48.714;8.994;2022-12-28T09:44:01;4.80;;;1.67;;
6661;SDS011;3367;48.714;8.994;2022-12-28T09:46:41;3.13;;;1.10;;
6661;SDS011;3367;48.714;8.994;2022-12-28T09:49:14;2.30;;;1.67;;
6661;SDS011;3367;48.714;8.994;2022-12-28T09:51:44;3.10;;;1.60;;
6661;SDS011;3367;48.714;8.994;2022-12-28T09:54:17;3.10;;;1.37;;
6661;SDS011;3367;48.714;8.994;2022-12-28T09:56:44;0.90;;;0.60;;
6661;SDS011;3367;48.714;8.994;2022-12-28T09:59:14;3.53;;;1.17;;
6661;SDS011;3367;48.714;8.994;2022-12-28T10:01:44;1.20;;;1.10;;
6661;SDS011;3367;48.714;8.994;2022-12-28T10:04:21;1.97;;;0.90;;
6661;SDS011;3367;48.714;8.994;2022-12-28T10:06:48;2.07;;;1.10;;
6661;SDS011;3367;48.714;8.994;2022-12-28T10:09:16;1.53;;;0.80;;
6661;SDS011;3367;48.714;8.994;2022-12-28T10:11:48;3.47;;;1.40;;
6661;SDS011;3367;48.714;8.994;2022-12-28T10:14:16;2.57;;;1.13;;
6661;SDS011;3367;48.714;8.994;2022-12-28T10:16:44;3.37;;;1.57;;
6661;SDS011;3367;48.714;8.994;2022-12-28T10:19:11;1.17;;;0.90;;
6661;SDS011;3367;48.714;8.994;2022-12-28T10:21:44;2.30;;;1.07;;
6661;SDS011;3367;48.714;8.994;2022-12-28T10:24:12;1.47;;;1.20;;
6661;SDS011;3367;48.714;8.994;2022-12-28T10:26:39;1.33;;;1.13;;
6661;SDS011;3367;48.714;8.994;2022-12-28T10:29:09;2.20;;;1.10;;
6661;SDS011;3367;48.714;8.994;2022-12-28T10:31:41;1.63;;;0.80;;
6661;SDS011;3367;48.714;8.994;2022-12-28T10:34:12;2.10;;;0.80;;
6661;SDS011;3367;48.714;8.994;2022-12-28T10:36:40;1.53;;;0.80;;
6661;SDS011;3367;48.714;8.994;2022-12-28T10:39:11;3.93;;;0.80;;
6661;SDS011;3367;48.714;8.994;2022-12-28T10:41:41;4.33;;;0.93;;
6661;SDS011;3367;48.714;8.994;2022-12-28T10:44:16;1.87;;;0.90;;
6661;SDS011;3367;48.714;8.994;2022-12-28T10:46:53;3.37;;;1.20;;
6661;SDS011;3367;48.714;8.994;2022-12-28T10:49:22;1.20;;;1.10;;
6661;SDS011;3367;48.714;8.994;2022-12-28T10:51:58;2.00;;;1.40;;
6661;SDS011;3367;48.714;8.994;2022-12-28T10:54:30;1.23;;;1.13;;
6661;SDS011;3367;48.714;8.994;2022-12-28T10:56:58;2.30;;;1.50;;
6661;SDS011;3367;48.714;8.994;2022-12-28T10:59:25;7.00;;;3.20;;
6661;SDS011;3367;48.714;8.994;2022-12-28T11:01:53;2.73;;;1.80;;
6661;SDS011;3367;48.714;8.994;2022-12-28T11:04:40;4.80;;;1.60;;
6661;SDS011;3367;48.714;8.994;2022-12-28T11:07:24;3.20;;;1.50;;
6661;SDS011;3367;48.714;8.994;2022-12-28T11:10:10;1.17;;;1.07;;
6661;SDS011;3367;48.714;8.994;2022-12-28T11:12:40;3.17;;;1.50;;
6661;SDS011;3367;48.714;8.994;2022-12-28T11:15:11;3.53;;;2.00;;
6661;SDS011;3367;48.714;8.994;2022-12-28T11:17:39;4.27;;;1.50;;
6661;SDS011;3367;48.714;8.994;2022-12-28T11:20:07;2.30;;;1.90;;
6661;SDS011;3367;48.714;8.994;2022-12-28T11:22:49;3.17;;;1.87;;
6661;SDS011;3367;48.714;8.994;2022-12-28T11:25:18;3.10;;;1.60;;
6661;SDS011;3367;48.714;8.994;2022-12-28T11:27:48;3.77;;;2.03;;
6661;SDS011;3367;48.714;8.994;2022-12-28T11:30:16;2.80;;;2.30;;
6661;SDS011;3367;48.714;8.994;2022-12-28T11:32:46;1.93;;;1.67;;
6661;SDS011;3367;48.714;8.994;2022-12-28T11:35:16;1.67;;;1.10;;
6661;SDS011;3367;48.714;8.994;2022-12-28T11:37:49;1.30;;;1.10;;
6661;SDS011;3367;48.714;8.994;2022-12-28T11:43:37;1.43;;;1.00;;
6661;SDS011;3367;48.714;8.994;2022-12-28T11:46:05;2.80;;;2.20;;
6661;SDS011;3367;48.714;8.994;2022-12-28T11:48:55;3.30;;;1.90;;
6661;SDS011;3367;48.714;8.994;2022-12-28T11:51:23;2.80;;;2.13;;
6661;SDS011;3367;48.714;8.994;2022-12-28T11:53:53;3.50;;;1.63;;
6661;SDS011;3367;48.714;8.994;2022-12-28T11:56:24;1.93;;;1.10;;
6661;SDS011;3367;48.714;8.994;2022-12-28T11:59:03;2.67;;;1.70;;
6661;SDS011;3367;48.714;8.994;2022-12-28T12:01:49;2.80;;;1.57;;
6661;SDS011;3367;48.714;8.994;2022-12-28T12:04:27;2.00;;;1.57;;
6661;SDS011;3367;48.714;8.994;2022-12-28T12:07:05;3.27;;;1.87;;
6661;SDS011;3367;48.714;8.994;2022-12-28T12:09:44;3.17;;;1.37;;
6661;SDS011;3367;48.714;8.994;2022-12-28T12:15:15;2.30;;;1.60;;
6661;SDS011;3367;48.714;8.994;2022-12-28T12:17:46;2.70;;;2.03;;
6661;SDS011;3367;48.714;8.994;2022-12-28T12:20:17;3.13;;;2.63;;
6661;SDS011;3367;48.714;8.994;2022-12-28T12:22:50;3.60;;;2.67;;
6661;SDS011;3367;48.714;8.994;2022-12-28T12:25:21;2.73;;;1.00;;
6661;SDS011;3367;48.714;8.994;2022-12-28T12:27:52;2.53;;;1.47;;
6661;SDS011;3367;48.714;8.994;2022-12-28T12:30:22;3.87;;;1.70;;
6661;SDS011;3367;48.714;8.994;2022-12-28T12:32:51;1.63;;;1.40;;
6661;SDS011;3367;48.714;8.994;2022-12-28T12:35:21;1.77;;;1.67;;
6661;SDS011;3367;48.714;8.994;2022-12-28T12:37:50;1.93;;;1.40;;
6661;SDS011;3367;48.714;8.994;2022-12-28T12:40:24;1.27;;;1.00;;
6661;SDS011;3367;48.714;8.994;2022-12-28T12:43:22;2.07;;;1.87;;
6661;SDS011;3367;48.714;8.994;2022-12-28T12:46:01;1.70;;;1.60;;
6661;SDS011;3367;48.714;8.994;2022-12-28T12:48:54;1.40;;;1.30;;
6661;SDS011;3367;48.714;8.994;2022-12-28T12:51:38;3.33;;;2.97;;
6661;SDS011;3367;48.714;8.994;2022-12-28T12:54:16;3.63;;;1.83;;
6661;SDS011;3367;48.714;8.994;2022-12-28T12:56:55;4.37;;;1.77;;
6661;SDS011;3367;48.714;8.994;2022-12-28T12:59:30;3.40;;;1.90;;
6661;SDS011;3367;48.714;8.994;2022-12-28T13:02:19;2.43;;;1.80;;
6661;SDS011;3367;48.714;8.994;2022-12-28T13:05:00;2.67;;;1.77;;
6661;SDS011;3367;48.714;8.994;2022-12-28T13:07:28;1.70;;;1.60;;
6661;SDS011;3367;48.714;8.994;2022-12-28T13:09:56;1.97;;;1.77;;
6661;SDS011;3367;48.714;8.994;2022-12-28T13:12:26;1.90;;;1.50;;
6661;SDS011;3367;48.714;8.994;2022-12-28T13:14:55;2.80;;;1.87;;
6661;SDS011;3367;48.714;8.994;2022-12-28T13:17:24;1.80;;;1.70;;
6661;SDS011;3367;48.714;8.994;2022-12-28T13:20:05;3.17;;;2.10;;
6661;SDS011;3367;48.714;8.994;2022-12-28T13:22:33;6.03;;;3.00;;
6661;SDS011;3367;48.714;8.994;2022-12-28T13:25:00;2.60;;;1.50;;
6661;SDS011;3367;48.714;8.994;2022-12-28T13:27:28;5.20;;;2.50;;
6661;SDS011;3367;48.714;8.994;2022-12-28T13:30:00;5.10;;;1.53;;
6661;SDS011;3367;48.714;8.994;2022-12-28T13:32:28;2.33;;;1.93;;
6661;SDS011;3367;48.714;8.994;2022-12-28T13:34:56;2.03;;;0.90;;
6661;SDS011;3367;48.714;8.994;2022-12-28T13:37:22;3.67;;;1.83;;
6661;SDS011;3367;48.714;8.994;2022-12-28T13:39:49;1.17;;;1.07;;
6661;SDS011;3367;48.714;8.994;2022-12-28T13:42:35;1.93;;;1.33;;
6661;SDS011;3367;48.714;8.994;2022-12-28T13:45:15;1.70;;;1.07;;
6661;SDS011;3367;48.714;8.994;2022-12-28T13:47:47;1.67;;;1.57;;
6661;SDS011;3367;48.714;8.994;2022-12-28T13:50:17;1.40;;;1.30;;
6661;SDS011;3367;48.714;8.994;2022-12-28T13:52:49;1.43;;;1.17;;
6661;SDS011;3367;48.714;8.994;2022-12-28T13:55:22;2.87;;;1.30;;
6661;SDS011;3367;48.714;8.994;2022-12-28T13:57:53;7.67;;;1.80;;
6661;SDS011;3367;48.714;8.994;2022-12-28T14:00:26;2.30;;;1.30;;
6661;SDS011;3367;48.714;8.994;2022-12-28T14:02:55;1.80;;;1.50;;
6661;SDS011;3367;48.714;8.994;2022-12-28T14:05:24;5.27;;;1.30;;
6661;SDS011;3367;48.714;8.994;2022-12-28T14:07:53;1.73;;;1.50;;
6661;SDS011;3367;48.714;8.994;2022-12-28T14:10:21;1.17;;;1.07;;
6661;SDS011;3367;48.714;8.994;2022-12-28T14:12:49;2.93;;;1.10;;
6661;SDS011;3367;48.714;8.994;2022-12-28T14:15:17;1.53;;;1.43;;
6661;SDS011;3367;48.714;8.994;2022-12-28T14:17:46;1.10;;;1.00;;
6661;SDS011;3367;48.714;8.994;2022-12-28T14:20:14;2.53;;;1.20;;
6661;SDS011;3367;48.714;8.994;2022-12-28T14:22:41;1.60;;;1.50;;
6661;SDS011;3367;48.714;8.994;2022-12-28T14:25:09;3.37;;;1.90;;
6661;SDS011;3367;48.714;8.994;2022-12-28T14:27:38;1.43;;;1.00;;
6661;SDS011;3367;48.714;8.994;2022-12-28T14:30:07;1.23;;;1.13;;
6661;SDS011;3367;48.714;8.994;2022-12-28T14:32:47;1.60;;;1.10;;
6661;SDS011;3367;48.714;8.994;2022-12-28T14:35:16;2.33;;;1.50;;
6661;SDS011;3367;48.714;8.994;2022-12-28T14:37:45;3.37;;;1.10;;
6661;SDS011;3367;48.714;8.994;2022-12-28T14:40:20;2.17;;;1.23;;
6661;SDS011;3367;48.714;8.994;2022-12-28T14:42:51;2.10;;;1.33;;
6661;SDS011;3367;48.714;8.994;2022-12-28T14:45:20;1.10;;;1.10;;
6661;SDS011;3367;48.714;8.994;2022-12-28T14:47:53;2.03;;;1.37;;
6661;SDS011;3367;48.714;8.994;2022-12-28T14:50:22;2.70;;;1.20;;
6661;SDS011;3367;48.714;8.994;2022-12-28T14:52:59;1.00;;;1.00;;
6661;SDS011;3367;48.714;8.994;2022-12-28T14:55:30;1.30;;;1.20;;
6661;SDS011;3367;48.714;8.994;2022-12-28T14:58:03;5.93;;;1.83;;
6661;SDS011;3367;48.714;8.994;2022-12-28T15:00:38;1.67;;;1.53;;
6661;SDS011;3367;48.714;8.994;2022-12-28T15:03:17;1.63;;;1.20;;
6661;SDS011;3367;48.714;8.994;2022-12-28T15:05:47;1.90;;;1.27;;
6661;SDS011;3367;48.714;8.994;2022-12-28T15:08:15;3.00;;;1.03;;
6661;SDS011;3367;48.714;8.994;2022-12-28T15:10:45;2.30;;;1.57;;
6661;SDS011;3367;48.714;8.994;2022-12-28T15:13:14;1.40;;;1.20;;
6661;SDS011;3367;48.714;8.994;2022-12-28T15:15:42;1.00;;;0.90;;
6661;SDS011;3367;48.714;8.994;2022-12-28T15:18:08;5.30;;;1.40;;
6661;SDS011;3367;48.714;8.994;2022-12-28T15:20:37;3.27;;;1.57;;
6661;SDS011;3367;48.714;8.994;2022-12-28T15:23:04;3.03;;;1.40;;
6661;SDS011;3367;48.714;8.994;2022-12-28T15:25:33;1.60;;;1.50;;
6661;SDS011;3367;48.714;8.994;2022-12-28T15:28:00;3.23;;;1.57;;
6661;SDS011;3367;48.714;8.994;2022-12-28T15:30:27;3.13;;;1.40;;
6661;SDS011;3367;48.714;8.994;2022-12-28T15:32:54;4.40;;;1.97;;
6661;SDS011;3367;48.714;8.994;2022-12-28T15:35:21;2.40;;;1.57;;
6661;SDS011;3367;48.714;8.994;2022-12-28T15:37:49;1.63;;;1.53;;
6661;SDS011;3367;48.714;8.994;2022-12-28T15:40:16;3.33;;;1.73;;
6661;SDS011;3367;48.714;8.994;2022-12-28T15:42:43;3.00;;;2.80;;